KAKH

Details ICAO KAKH
Name Gastonia Muni
Region United States
Timezone America/New_York (UTC-5.0)
Plans Departing 5
Arriving 2
Stats Elevation 797 ft / 243 m (AMSL)
Location 35.202624° -81.149875°
Runways 1
Magnetic Variation 7.552° W
Sunrise 2017-12-16 12:27:56 UTC / 2017-12-16 07:27:56 Local
Sunset 2017-12-16 22:15:30 UTC / 2017-12-16 17:15:30 Local
Advertisement - Login to hide

Runways

ID Width Length Bearing (true) Bearing (mag) Surface Threshold Offset Overrun Length
03 100 ft / 30 m 3,775 ft / 1,151 m 28.23° 35.78° Asphalt 0 ft / 0 m 0 ft / 0 m
21 100 ft / 30 m 3,775 ft / 1,151 m 208.23° 215.78° Asphalt 90 ft / 27 m 0 ft / 0 m

Map

Weather


0- 5 10 15 20 25 30 35+ Temperature / ° C

Clouds and Precipitation
Forecast for 2017-12-17 06:00 UTC. Updated 40 minutes ago

Ground ~20,000 ft ~40,000 ft Winds

METAR

KAKH 170154Z AUTO 00000KT 9SM CLR 02/M03 A3023 RMK AO2 SLP244 T00221033

TAF

Not found

Frequencies

Recorded 135.72 MHz ASOS
Approach 134.75 MHz CHARLOTTE APP/DEP
Unicom 123.00 MHz CTAF/UNICOM
Warning: Do not use this data for real-world aviation or navigation. No guarantee of current accuracy is given.